Acosta, PA (15520)

5:59 AM EDT on August 29, 2014 (GMT -0400)
Somerset Twp 3 | Change Station
CLOSE
Current Station
Personal Weather Station
Location: Somerset, PA
Elevation: 2241 ft
Nearby Weather Stations

Elev 2241 ft 40.02 °N, 79.10 °W | Updated 2 seconds ago

Clear
Clear
46.6 °F
Feels Like 47 °F
N
0.0
Wind Variable Wind from SE
Gusts 0.7 mph

Today
High -- | Low -- °F
--% Chance of Precip.
Yesterday
High -- | Low -- °F
Precip. -- in
6:41 AM 7:52 PM
Waxing Crescent, 13% visible
Pressure 30.19 in
Visibility 10.0 miles
Clouds Clear
Windchill 47 °F
Dew Point 46 °F
Humidity 99%
Rainfall 0.00 in
Snow Depth Not available.
UV 0 out of 12
Pollen 9.70 out of 12
Ozone Good
PM2.5 Good
Flu Activity Not available.
METAR KJST 290954Z AUTO 21003KT 10SM CLR 09/08 A3019 RMK AO2 SLP221 T00940083

More Conditions Fewer Conditions

Pressure 30.19 in
Visibility 10.0 miles
Clouds Clear
Windchill 47 °F
Dew Point 46 °F
Humidity 99%
Rainfall 0.00 in
Snow Depth Not available.
UV 0 out of 12
Pollen 9.70 out of 12
Ozone Good
PM2.5 Good
Flu Activity Not available.
METAR KJST 290954Z AUTO 21003KT 10SM CLR 09/08 A3019 RMK AO2 SLP221 T00940083

More Conditions Fewer Conditions

10-Day Weather Forecast

Almanac

Astronomy

Aug. 29, 2014 Rise Set
Actual Time 6:41 AM EDT 7:52 PM EDT
Civil Twilight 6:13 AM EDT 8:20 PM EDT
Nautical Twilight 5:39 AM EDT 8:53 PM EDT
Astronomical Twilight 5:04 AM EDT 9:28 PM EDT
Moon 10:29 AM EDT 9:49 PM EDT
Length of Visible Light 14h 07m
Length of Day
13h 11m
Tomorrow will be 2m 31s shorter.
Waxing Crescent, 13% of the Moon is Illuminated
Today
Waxing Crescent
Sep 2
First Quarter
Sep 8
Full
Sep 15
Last Quarter
Sep 24
New

Today's Extremes

State Highs State Lows

Community

WunderPhotos

Upload Photos

1,748,207 photos uploaded!

Nearby

Air Quality

  Air Quality AQ Index Pollutant
Yesterday Good
OZONE
Yesterday Good
PM2.5
Current Good
PM2.5
Current Good
OZONE
Friday Good
PM2.5
Friday Good
OZONE
Saturday Moderate
OZONE
Saturday Moderate
PM2.5

Snow Depth

Station Depth Elevation
No new snow has been reported.

Earthquake Activity

City Distance Mag. Time & Date
No recent earthquake activity has been reported nearby.
Minimum magnitude displayed is 2.5.

Coastal Water Temperatures

Place Temperature
No Stations Reporting

Nearby Weather Stations